Time;durP1;ratioP1;P1;durP2;ratioP2;P2;SDS_P1;SDS_P2;PMS_P1;PMS_P2;Temp;Humidity;BMP_temperature;BMP_pressure;BME280_temperature;BME280_humidity;BME280_pressure;Samples;Min_cycle;Max_cycle;Signal;HPM_P1;HPM_P2
2024/03/04 00:02:25;;;;;;;4.32;4.00;;;;;;;;;;5020557;28;60966;-75
2024/03/04 00:04:50;;;;;;;4.47;4.07;;;;;;;;;;5027110;28;59195;-75
2024/03/04 00:07:15;;;;;;;4.53;4.13;;;;;;;;;;5022349;28;61033;-75
2024/03/04 00:09:40;;;;;;;4.50;4.10;;;;;;;;;;5023198;28;59311;-73
2024/03/04 00:12:05;;;;;;;4.30;3.90;;;;;;;;;;5024672;28;59164;-74
2024/03/04 00:14:31;;;;;;;5.40;4.90;;;;;;;;;;5015786;28;60155;-75
2024/03/04 00:16:56;;;;;;;4.00;3.70;;;;;;;;;;5030453;28;59338;-74
2024/03/04 00:19:21;;;;;;;4.33;3.93;;;;;;;;;;5021503;28;59355;-74
2024/03/04 00:21:47;;;;;;;5.97;4.73;;;;;;;;;;5013030;28;59297;-79
2024/03/04 00:24:12;;;;;;;4.75;4.32;;;;;;;;;;5012976;28;59258;-79
2024/03/04 00:26:37;;;;;;;5.40;4.53;;;;;;;;;;5030515;28;59245;-81
2024/03/04 00:29:06;;;;;;;5.10;4.53;;;;;;;;;;5026012;28;60054;-80
2024/03/04 00:31:31;;;;;;;;;;;;;;;;;;5029577;27;59238;-81
2024/03/04 00:33:56;;;;;;;5.65;5.15;;;;;;;;;;5028065;28;60576;-81
2024/03/04 00:36:26;;;;;;;5.75;5.25;;;;;;;;;;5026533;28;59303;-82
2024/03/04 00:38:52;;;;;;;4.45;4.03;;;;;;;;;;5025150;28;59254;-81
2024/03/04 00:41:24;;;;;;;5.80;5.20;;;;;;;;;;5020418;28;60316;-81
2024/03/04 00:43:49;;;;;;;5.63;5.13;;;;;;;;;;5017177;28;59345;-79
2024/03/04 00:46:15;;;;;;;5.60;5.10;;;;;;;;;;5019922;28;60741;-81
2024/03/04 00:48:42;;;;;;;5.88;4.97;;;;;;;;;;5023735;28;59810;-79
2024/03/04 00:51:07;;;;;;;5.90;5.13;;;;;;;;;;5025918;28;59207;-80
2024/03/04 00:53:32;;;;;;;5.57;5.07;;;;;;;;;;5014536;28;60045;-80
2024/03/04 00:55:58;;;;;;;5.32;4.82;;;;;;;;;;5026249;28;59571;-81
2024/03/04 00:58:23;;;;;;;5.00;4.60;;;;;;;;;;5026180;28;59206;-81
2024/03/04 01:00:49;;;;;;;5.30;4.80;;;;;;;;;;5028930;28;61023;-81
2024/03/04 01:03:15;;;;;;;7.53;5.43;;;;;;;;;;5023059;28;60116;-81
2024/03/04 01:05:41;;;;;;;7.43;6.72;;;;;;;;;;5017722;28;59387;-79
2024/03/04 01:08:07;;;;;;;5.90;4.88;;;;;;;;;;5018544;28;59836;-80
2024/03/04 01:10:32;;;;;;;6.35;5.75;;;;;;;;;;5014824;28;59630;-80
2024/03/04 01:12:58;;;;;;;5.50;5.00;;;;;;;;;;5025343;28;59409;-80
2024/03/04 01:15:23;;;;;;;5.17;4.67;;;;;;;;;;5026772;28;59333;-81
2024/03/04 01:17:48;;;;;;;6.33;5.73;;;;;;;;;;5027126;28;59097;-80
2024/03/04 01:20:14;;;;;;;5.68;5.18;;;;;;;;;;5027093;28;60182;-81
2024/03/04 01:22:39;;;;;;;5.78;5.28;;;;;;;;;;5017252;28;59480;-80
2024/03/04 01:25:04;;;;;;;5.83;5.23;;;;;;;;;;5014350;28;59193;-81
2024/03/04 01:27:30;;;;;;;7.30;5.57;;;;;;;;;;5012330;28;60092;-81
2024/03/04 01:29:55;;;;;;;6.53;5.87;;;;;;;;;;5008871;28;59552;-81
2024/03/04 01:32:24;;;;;;;5.73;5.23;;;;;;;;;;5008130;28;60202;-76
2024/03/04 01:34:49;;;;;;;6.13;5.35;;;;;;;;;;5016796;28;59271;-76
2024/03/04 01:37:14;;;;;;;6.20;5.60;;;;;;;;;;5015019;28;59102;-76
2024/03/04 01:39:39;;;;;;;6.07;5.40;;;;;;;;;;5018798;28;59850;-76
2024/03/04 01:42:04;;;;;;;5.63;5.15;;;;;;;;;;5022385;28;59466;-76
2024/03/04 01:44:35;;;;;;;6.93;6.23;;;;;;;;;;5020417;28;59239;-76
2024/03/04 01:47:02;;;;;;;5.75;5.25;;;;;;;;;;5026946;28;64639;-77
2024/03/04 01:49:28;;;;;;;6.43;5.82;;;;;;;;;;5020718;28;59928;-76
2024/03/04 01:51:54;;;;;;;6.22;5.60;;;;;;;;;;5013887;28;59991;-76
2024/03/04 01:54:19;;;;;;;6.40;5.80;;;;;;;;;;5011742;28;59312;-76
2024/03/04 01:56:44;;;;;;;5.17;4.67;;;;;;;;;;5005968;28;59180;-76
2024/03/04 01:59:09;;;;;;;5.43;4.93;;;;;;;;;;5029200;28;60170;-76
2024/03/04 02:01:36;;;;;;;8.57;6.27;;;;;;;;;;5008900;28;59382;-77
2024/03/04 02:04:01;;;;;;;6.18;5.32;;;;;;;;;;5017889;28;59194;-76
2024/03/04 02:06:28;;;;;;;6.82;6.15;;;;;;;;;;5024485;28;60505;-77
2024/03/04 02:08:53;;;;;;;6.32;5.50;;;;;;;;;;5013350;28;59163;-76
2024/03/04 02:11:19;;;;;;;6.10;5.50;;;;;;;;;;5008336;28;59357;-76
2024/03/04 02:13:44;;;;;;;6.05;5.28;;;;;;;;;;5022578;28;59741;-77
2024/03/04 02:16:09;;;;;;;6.47;5.87;;;;;;;;;;5018720;28;59049;-76
2024/03/04 02:18:34;;;;;;;6.63;5.97;;;;;;;;;;5021234;28;61060;-76
2024/03/04 02:21:00;;;;;;;6.07;5.50;;;;;;;;;;5020997;28;59298;-76
2024/03/04 02:23:26;;;;;;;6.22;5.50;;;;;;;;;;5009379;28;59297;-76
2024/03/04 02:25:52;;;;;;;7.05;6.38;;;;;;;;;;5018778;28;59659;-76
2024/03/04 02:28:18;;;;;;;5.88;5.38;;;;;;;;;;5027860;28;59340;-76
2024/03/04 02:30:43;;;;;;;5.60;5.10;;;;;;;;;;5030417;28;59340;-76
2024/03/04 02:33:08;;;;;;;5.73;5.13;;;;;;;;;;5022977;28;59438;-76
2024/03/04 02:35:33;;;;;;;6.20;5.60;;;;;;;;;;5020639;28;59176;-76
2024/03/04 02:38:00;;;;;;;5.27;4.80;;;;;;;;;;5031087;28;60169;-76
2024/03/04 02:40:25;;;;;;;5.78;5.20;;;;;;;;;;5019212;28;59726;-76
2024/03/04 02:42:50;;;;;;;5.93;5.33;;;;;;;;;;5023959;28;59186;-81
2024/03/04 02:45:16;;;;;;;5.65;5.15;;;;;;;;;;5028801;28;59951;-81
2024/03/04 02:47:41;;;;;;;5.77;5.27;;;;;;;;;;5028781;28;59638;-80
2024/03/04 02:50:07;;;;;;;5.80;5.30;;;;;;;;;;5034041;28;60224;-80
2024/03/04 02:52:32;;;;;;;6.13;5.63;;;;;;;;;;5032131;27;60199;-77
2024/03/04 02:54:57;;;;;;;6.47;5.77;;;;;;;;;;5028897;28;59207;-77
2024/03/04 02:57:23;;;;;;;6.67;6.07;;;;;;;;;;5029428;28;59441;-76
2024/03/04 02:59:48;;;;;;;5.95;5.45;;;;;;;;;;5028081;28;59713;-76
2024/03/04 03:02:13;;;;;;;6.03;5.25;;;;;;;;;;5030811;28;59338;-76
2024/03/04 03:04:38;;;;;;;7.73;5.57;;;;;;;;;;5018239;28;61367;-76
2024/03/04 03:07:03;;;;;;;5.82;5.22;;;;;;;;;;5025265;28;59311;-76
2024/03/04 03:09:28;;;;;;;6.23;5.60;;;;;;;;;;5029902;28;59475;-76
2024/03/04 03:11:55;;;;;;;6.10;5.20;;;;;;;;;;5029225;28;61413;-76
2024/03/04 03:14:20;;;;;;;6.15;5.55;;;;;;;;;;5031152;28;59161;-74
2024/03/04 03:16:45;;;;;;;5.97;5.37;;;;;;;;;;5019222;28;59621;-76
2024/03/04 03:19:20;;;;;;;6.28;5.57;;;;;;;;;;5025106;28;60379;-77
2024/03/04 03:21:45;;;;;;;5.65;5.15;;;;;;;;;;5020304;28;59152;-77
2024/03/04 03:24:10;;;;;;;6.90;6.30;;;;;;;;;;5019705;28;61240;-74
2024/03/04 03:26:35;;;;;;;5.63;5.13;;;;;;;;;;5018171;28;59557;-74
2024/03/04 03:29:01;;;;;;;5.90;5.40;;;;;;;;;;5015345;28;59351;-76
2024/03/04 03:31:26;;;;;;;5.17;4.67;;;;;;;;;;5026555;28;62216;-74
2024/03/04 03:33:51;;;;;;;6.03;5.43;;;;;;;;;;5029679;28;59417;-75
2024/03/04 03:36:16;;;;;;;6.50;5.87;;;;;;;;;;5029840;28;59278;-74
2024/03/04 03:38:42;;;;;;;6.57;5.87;;;;;;;;;;5026321;28;59399;-77
2024/03/04 03:41:07;;;;;;;6.15;5.57;;;;;;;;;;5018268;28;59175;-76
2024/03/04 03:43:32;;;;;;;6.30;5.13;;;;;;;;;;5026629;28;61159;-76
2024/03/04 03:45:57;;;;;;;5.60;5.03;;;;;;;;;;5029685;28;59313;-76
2024/03/04 03:48:25;;;;;;;8.02;6.40;;;;;;;;;;5029208;28;59354;-76
2024/03/04 03:50:50;;;;;;;7.35;5.72;;;;;;;;;;5027665;28;60544;-77
2024/03/04 03:53:15;;;;;;;5.13;4.63;;;;;;;;;;5028077;28;59314;-76
2024/03/04 03:55:41;;;;;;;5.33;4.83;;;;;;;;;;5018082;28;59308;-76
2024/03/04 03:58:07;;;;;;;6.33;5.60;;;;;;;;;;5011522;28;60142;-76
2024/03/04 04:00:32;;;;;;;5.72;5.20;;;;;;;;;;5008067;28;59166;-80
2024/03/04 04:02:57;;;;;;;5.80;5.30;;;;;;;;;;5012610;28;60680;-80
2024/03/04 04:05:22;;;;;;;5.33;4.77;;;;;;;;;;5016361;28;59455;-80
2024/03/04 04:07:47;;;;;;;5.15;4.65;;;;;;;;;;5026375;28;59411;-80
2024/03/04 04:10:14;;;;;;;5.90;5.40;;;;;;;;;;5019533;28;60896;-80
2024/03/04 04:12:39;;;;;;;5.18;4.75;;;;;;;;;;5018038;28;59392;-76
2024/03/04 04:15:04;;;;;;;5.03;4.53;;;;;;;;;;5019595;28;59381;-77
2024/03/04 04:17:30;;;;;;;5.22;4.72;;;;;;;;;;5028757;28;60260;-75
2024/03/04 04:19:55;;;;;;;4.87;4.47;;;;;;;;;;5029055;27;59120;-76
2024/03/04 04:22:20;;;;;;;5.72;5.22;;;;;;;;;;5027892;28;60102;-75
2024/03/04 04:24:45;;;;;;;4.75;4.35;;;;;;;;;;5022240;28;59392;-76
2024/03/04 04:27:10;;;;;;;9.35;6.20;;;;;;;;;;5018054;28;59359;-76
2024/03/04 04:29:36;;;;;;;4.73;4.33;;;;;;;;;;5019748;28;59416;-76
2024/03/04 04:32:01;;;;;;;5.27;4.77;;;;;;;;;;5015981;28;59212;-75
2024/03/04 04:34:26;;;;;;;5.55;5.05;;;;;;;;;;5010023;28;59149;-75
2024/03/04 04:36:51;;;;;;;5.93;4.82;;;;;;;;;;5017858;28;59271;-76
2024/03/04 04:39:17;;;;;;;5.37;4.87;;;;;;;;;;5028457;28;59248;-76
2024/03/04 04:41:42;;;;;;;5.13;4.63;;;;;;;;;;5028629;28;60509;-76
2024/03/04 04:44:08;;;;;;;5.43;4.93;;;;;;;;;;5027096;28;59366;-76
2024/03/04 04:46:33;;;;;;;4.40;4.00;;;;;;;;;;5019752;28;59182;-76
2024/03/04 04:48:58;;;;;;;4.37;3.97;;;;;;;;;;5019093;28;60467;-76
2024/03/04 04:51:23;;;;;;;5.55;5.05;;;;;;;;;;5023346;28;60122;-76
2024/03/04 04:53:49;;;;;;;4.93;4.53;;;;;;;;;;5026348;28;59294;-77
2024/03/04 04:56:17;;;;;;;4.57;4.17;;;;;;;;;;5016466;28;60859;-76
2024/03/04 04:58:43;;;;;;;5.10;4.60;;;;;;;;;;5023783;28;59339;-76
2024/03/04 05:01:08;;;;;;;5.28;4.78;;;;;;;;;;5013378;28;59336;-76
2024/03/04 05:03:33;;;;;;;4.65;4.25;;;;;;;;;;5010890;28;59289;-76
2024/03/04 05:06:00;;;;;;;5.20;4.68;;;;;;;;;;5017981;28;59446;-76
2024/03/04 05:08:25;;;;;;;4.38;3.97;;;;;;;;;;5028964;28;60535;-77
2024/03/04 05:10:50;;;;;;;5.07;4.57;;;;;;;;;;5015434;28;60027;-76
2024/03/04 05:13:15;;;;;;;4.65;4.25;;;;;;;;;;5011648;28;59278;-76
2024/03/04 05:15:40;;;;;;;4.32;3.92;;;;;;;;;;5014144;28;60059;-76
2024/03/04 05:18:05;;;;;;;5.00;4.50;;;;;;;;;;5019459;28;59756;-76
2024/03/04 05:20:31;;;;;;;4.93;4.47;;;;;;;;;;5017320;28;59230;-78
2024/03/04 05:22:56;;;;;;;4.73;4.33;;;;;;;;;;5015337;28;60334;-81
2024/03/04 05:25:21;;;;;;;3.97;3.58;;;;;;;;;;5008472;28;59152;-80
2024/03/04 05:27:46;;;;;;;5.28;4.88;;;;;;;;;;5015181;28;59508;-79
2024/03/04 05:30:11;;;;;;;4.72;4.20;;;;;;;;;;5019943;28;59467;-79
2024/03/04 05:32:37;;;;;;;4.20;3.80;;;;;;;;;;5026773;28;59458;-80
2024/03/04 05:35:04;;;;;;;4.45;4.05;;;;;;;;;;5004930;28;59637;-80
2024/03/04 05:37:29;;;;;;;4.72;4.32;;;;;;;;;;5022095;28;59308;-80
2024/03/04 05:39:54;;;;;;;7.32;4.25;;;;;;;;;;5027318;28;59255;-78
2024/03/04 05:42:19;;;;;;;5.40;4.90;;;;;;;;;;5025910;28;60069;-80
2024/03/04 05:44:45;;;;;;;4.40;4.00;;;;;;;;;;5028733;28;59365;-78
2024/03/04 05:47:10;;;;;;;4.15;3.75;;;;;;;;;;5026511;28;60356;-82
2024/03/04 05:49:37;;;;;;;4.38;3.97;;;;;;;;;;5018216;28;59239;-82
2024/03/04 05:52:02;;;;;;;4.57;4.18;;;;;;;;;;5023582;28;59334;-81
2024/03/04 05:54:27;;;;;;;6.17;4.10;;;;;;;;;;5024606;28;60685;-83
2024/03/04 05:56:52;;;;;;;6.13;5.53;;;;;;;;;;5019402;28;59321;-83
2024/03/04 05:59:18;;;;;;;4.40;4.00;;;;;;;;;;5007062;28;59192;-83
2024/03/04 06:01:45;;;;;;;6.00;4.82;;;;;;;;;;5004013;28;60664;-80
2024/03/04 06:04:10;;;;;;;6.85;4.97;;;;;;;;;;5007599;28;59405;-80
2024/03/04 06:06:35;;;;;;;7.37;5.33;;;;;;;;;;5011516;28;59303;-82
2024/03/04 06:09:03;;;;;;;6.57;5.87;;;;;;;;;;5016411;28;59214;-81
2024/03/04 06:11:28;;;;;;;10.02;6.70;;;;;;;;;;5026421;28;59349;-81
2024/03/04 06:13:53;;;;;;;12.50;7.40;;;;;;;;;;5027143;28;61177;-82
2024/03/04 06:16:20;;;;;;;8.03;6.87;;;;;;;;;;5013041;28;59267;-82
2024/03/04 06:18:45;;;;;;;10.68;6.45;;;;;;;;;;5013087;28;59343;-82
2024/03/04 06:21:10;;;;;;;7.83;6.80;;;;;;;;;;5020216;28;60660;-77
2024/03/04 06:23:35;;;;;;;6.90;6.10;;;;;;;;;;5028226;28;59498;-76
2024/03/04 06:26:00;;;;;;;9.77;5.95;;;;;;;;;;5028129;28;59303;-77
2024/03/04 06:28:26;;;;;;;7.47;6.78;;;;;;;;;;5018716;28;59171;-77
2024/03/04 06:30:51;;;;;;;12.20;7.30;;;;;;;;;;5016911;28;59246;-82
2024/03/04 06:33:17;;;;;;;6.82;5.57;;;;;;;;;;5021508;28;60385;-82
2024/03/04 06:35:42;;;;;;;7.63;6.57;;;;;;;;;;5023878;28;59344;-82
2024/03/04 06:38:07;;;;;;;8.75;6.75;;;;;;;;;;5006335;28;59194;-82
2024/03/04 06:40:32;;;;;;;11.25;6.65;;;;;;;;;;5015930;28;60051;-82
2024/03/04 06:42:57;;;;;;;6.95;5.88;;;;;;;;;;5022350;28;59374;-82
2024/03/04 06:45:23;;;;;;;5.95;5.38;;;;;;;;;;5022204;28;59195;-82
2024/03/04 06:47:48;;;;;;;9.50;6.27;;;;;;;;;;5019740;28;59623;-82
2024/03/04 06:50:13;;;;;;;10.23;6.13;;;;;;;;;;5027896;28;59307;-82
2024/03/04 06:52:38;;;;;;;6.80;5.03;;;;;;;;;;5018200;28;61000;-82
2024/03/04 06:55:03;;;;;;;9.07;6.23;;;;;;;;;;5016925;28;59746;-82
2024/03/04 06:57:29;;;;;;;8.32;5.70;;;;;;;;;;5015186;28;59266;-79
2024/03/04 06:59:54;;;;;;;7.57;6.45;;;;;;;;;;5020964;28;61662;-81
2024/03/04 07:02:19;;;;;;;9.85;7.40;;;;;;;;;;5027174;28;59261;-82
2024/03/04 07:04:44;;;;;;;9.90;5.73;;;;;;;;;;5026135;28;59162;-80
2024/03/04 07:07:10;;;;;;;7.53;5.77;;;;;;;;;;5029156;28;60290;-82
2024/03/04 07:09:35;;;;;;;6.93;5.82;;;;;;;;;;5026920;28;59239;-81
2024/03/04 07:12:00;;;;;;;7.33;6.00;;;;;;;;;;5020650;28;60047;-82
2024/03/04 07:14:25;;;;;;;6.97;4.97;;;;;;;;;;5022767;28;59297;-82
2024/03/04 07:16:50;;;;;;;8.73;5.63;;;;;;;;;;5018885;28;59301;-82
2024/03/04 07:19:15;;;;;;;6.07;5.35;;;;;;;;;;5028356;28;59210;-82
2024/03/04 07:21:41;;;;;;;7.55;6.07;;;;;;;;;;5029435;28;59218;-81
2024/03/04 07:24:06;;;;;;;7.70;5.77;;;;;;;;;;5027965;28;59188;-82
2024/03/04 07:26:31;;;;;;;7.35;5.50;;;;;;;;;;5030316;28;59234;-82
2024/03/04 07:28:57;;;;;;;7.07;5.90;;;;;;;;;;5017374;28;59292;-82
2024/03/04 07:31:22;;;;;;;7.55;5.60;;;;;;;;;;5027098;28;59194;-82
2024/03/04 07:33:47;;;;;;;7.23;5.90;;;;;;;;;;5030718;28;59195;-82
2024/03/04 07:36:15;;;;;;;6.78;5.63;;;;;;;;;;5026455;28;59269;-82
2024/03/04 07:38:41;;;;;;;6.88;5.00;;;;;;;;;;5018035;28;59207;-82
2024/03/04 07:41:06;;;;;;;6.30;5.10;;;;;;;;;;5030724;28;59354;-81
2024/03/04 07:43:31;;;;;;;9.27;5.90;;;;;;;;;;5029097;28;59095;-81
2024/03/04 07:45:56;;;;;;;7.00;5.10;;;;;;;;;;5029680;28;60026;-79
2024/03/04 07:48:21;;;;;;;5.87;4.90;;;;;;;;;;5028511;28;59346;-81
2024/03/04 07:50:47;;;;;;;9.63;6.30;;;;;;;;;;5029221;28;59314;-79
2024/03/04 07:53:12;;;;;;;10.23;6.55;;;;;;;;;;5030152;28;60908;-81
2024/03/04 07:55:37;;;;;;;7.88;5.95;;;;;;;;;;5010033;28;59335;-82
2024/03/04 07:58:02;;;;;;;7.47;5.37;;;;;;;;;;5014797;28;60120;-82
2024/03/04 08:00:27;;;;;;;6.87;5.60;;;;;;;;;;5019548;28;59474;-81
2024/03/04 08:02:52;;;;;;;6.85;5.68;;;;;;;;;;5019709;28;59261;-81
2024/03/04 08:05:17;;;;;;;10.00;6.47;;;;;;;;;;5031567;28;60322;-80
2024/03/04 08:07:43;;;;;;;6.67;5.53;;;;;;;;;;5030538;28;59393;-81
2024/03/04 08:10:08;;;;;;;7.88;6.03;;;;;;;;;;5026904;28;59214;-81
2024/03/04 08:12:37;;;;;;;6.75;5.75;;;;;;;;;;5026818;28;60315;-80
2024/03/04 08:15:05;;;;;;;7.00;5.47;;;;;;;;;;5028946;28;59207;-81
2024/03/04 08:17:32;;;;;;;9.25;5.13;;;;;;;;;;5027833;28;61157;-79
2024/03/04 08:19:58;;;;;;;6.57;5.18;;;;;;;;;;5006585;28;59285;-80
2024/03/04 08:22:24;;;;;;;7.35;5.28;;;;;;;;;;5024768;28;59194;-82
2024/03/04 08:24:49;;;;;;;7.47;5.80;;;;;;;;;;5028110;28;60034;-81
2024/03/04 08:27:14;;;;;;;7.87;5.30;;;;;;;;;;5024733;28;59616;-81
2024/03/04 08:29:40;;;;;;;6.88;6.00;;;;;;;;;;5020073;28;59291;-81
2024/03/04 08:32:05;;;;;;;6.05;5.45;;;;;;;;;;5021496;28;60384;-81
2024/03/04 08:34:34;;;;;;;6.55;4.75;;;;;;;;;;5024584;28;59310;-81
2024/03/04 08:36:59;;;;;;;;;;;;;;;;;;5022284;28;59304;-81
2024/03/04 08:39:24;;;;;;;6.88;6.20;;;;;;;;;;5022976;28;59180;-81
2024/03/04 08:41:49;;;;;;;7.10;5.83;;;;;;;;;;5027850;28;59340;-76
2024/03/04 08:44:15;;;;;;;7.27;5.33;;;;;;;;;;5028882;28;59982;-76
2024/03/04 08:46:40;;;;;;;6.18;5.22;;;;;;;;;;5029236;28;59428;-77
2024/03/04 08:49:06;;;;;;;6.47;5.05;;;;;;;;;;5028165;28;59925;-76
2024/03/04 08:51:31;;;;;;;6.13;5.23;;;;;;;;;;5026104;28;60042;-77
2024/03/04 08:53:56;;;;;;;7.15;6.43;;;;;;;;;;5027327;28;59205;-77
2024/03/04 08:56:22;;;;;;;6.97;5.27;;;;;;;;;;5030158;28;59417;-76
2024/03/04 08:58:47;;;;;;;7.60;5.87;;;;;;;;;;5016740;28;59277;-76
2024/03/04 09:01:12;;;;;;;5.93;5.33;;;;;;;;;;5027236;28;59218;-76
2024/03/04 09:03:39;;;;;;;8.27;6.27;;;;;;;;;;5022523;28;61067;-76
2024/03/04 09:06:04;;;;;;;6.25;5.65;;;;;;;;;;5018192;28;59418;-76
2024/03/04 09:08:29;;;;;;;5.40;4.90;;;;;;;;;;5017002;28;59203;-77
2024/03/04 09:10:56;;;;;;;8.80;5.93;;;;;;;;;;5017605;28;61642;-76
2024/03/04 09:13:21;;;;;;;8.35;6.60;;;;;;;;;;5022477;28;59353;-76
2024/03/04 09:15:46;;;;;;;8.53;6.07;;;;;;;;;;5022299;28;59298;-77
2024/03/04 09:18:12;;;;;;;6.13;5.53;;;;;;;;;;5018254;28;61110;-77
2024/03/04 09:20:38;;;;;;;5.07;4.55;;;;;;;;;;5028601;28;59391;-76
2024/03/04 09:23:03;;;;;;;6.43;5.67;;;;;;;;;;5018587;28;60164;-77
2024/03/04 09:25:28;;;;;;;8.65;6.50;;;;;;;;;;5024404;28;59298;-76
2024/03/04 09:27:53;;;;;;;5.77;5.17;;;;;;;;;;5019830;28;59236;-76
2024/03/04 09:30:19;;;;;;;7.53;5.63;;;;;;;;;;5021841;28;60038;-76
2024/03/04 09:32:44;;;;;;;7.07;5.95;;;;;;;;;;5027106;28;59483;-76
2024/03/04 09:35:11;;;;;;;7.70;5.82;;;;;;;;;;5027932;28;59191;-76
2024/03/04 09:37:36;;;;;;;6.00;5.40;;;;;;;;;;5027510;28;60342;-76
2024/03/04 09:40:04;;;;;;;7.63;5.78;;;;;;;;;;5028224;28;59499;-76
2024/03/04 09:42:32;;;;;;;6.85;6.10;;;;;;;;;;5023185;28;59808;-76
2024/03/04 09:44:57;;;;;;;6.70;6.10;;;;;;;;;;5017223;28;59148;-76
2024/03/04 09:47:23;;;;;;;5.90;5.25;;;;;;;;;;5026022;28;59223;-76
2024/03/04 09:49:51;;;;;;;6.57;5.50;;;;;;;;;;5017595;28;60845;-77
2024/03/04 09:52:17;;;;;;;6.63;6.00;;;;;;;;;;5017472;28;59297;-75
2024/03/04 09:54:43;;;;;;;7.38;6.68;;;;;;;;;;5024276;28;59248;-76
2024/03/04 09:57:08;;;;;;;7.63;6.80;;;;;;;;;;5024672;28;60575;-75
2024/03/04 09:59:34;;;;;;;6.35;5.68;;;;;;;;;;5025520;28;59217;-77
2024/03/04 10:02:01;;;;;;;6.22;5.60;;;;;;;;;;5017337;28;59243;-76
2024/03/04 10:04:26;;;;;;;5.55;5.05;;;;;;;;;;5026518;28;59413;-77
2024/03/04 10:06:52;;;;;;;8.10;5.68;;;;;;;;;;5028557;28;59219;-76
2024/03/04 10:09:17;;;;;;;5.75;5.22;;;;;;;;;;5023738;28;61031;-76
2024/03/04 10:11:43;;;;;;;6.23;5.20;;;;;;;;;;5017289;28;59405;-76
2024/03/04 10:14:08;;;;;;;7.05;5.97;;;;;;;;;;5026778;28;59370;-76
2024/03/04 10:16:34;;;;;;;7.20;5.73;;;;;;;;;;5027764;28;60118;-76
2024/03/04 10:19:03;;;;;;;6.32;5.40;;;;;;;;;;5027780;28;59425;-76
2024/03/04 10:21:28;;;;;;;6.82;5.65;;;;;;;;;;5020227;28;59319;-76
2024/03/04 10:23:55;;;;;;;7.85;5.88;;;;;;;;;;5012627;28;59731;-76
2024/03/04 10:26:21;;;;;;;5.43;4.93;;;;;;;;;;5019057;28;59375;-77
2024/03/04 10:28:46;;;;;;;6.33;5.73;;;;;;;;;;5020683;28;60464;-76
2024/03/04 10:31:12;;;;;;;6.88;4.68;;;;;;;;;;5023528;28;59286;-77
2024/03/04 10:33:39;;;;;;;6.75;5.85;;;;;;;;;;5028660;28;59215;-77
2024/03/04 10:36:16;;;;;;;6.82;6.15;;;;;;;;;;5024774;28;60725;-76
2024/03/04 10:38:43;;;;;;;6.30;5.70;;;;;;;;;;5017137;28;59256;-76
2024/03/04 10:41:19;;;;;;;5.40;4.75;;;;;;;;;;5018990;28;59097;-76
2024/03/04 10:43:44;;;;;;;5.75;4.97;;;;;;;;;;5029302;28;60322;-76
2024/03/04 10:46:10;;;;;;;8.00;5.75;;;;;;;;;;5026452;28;59273;-76
2024/03/04 10:48:35;;;;;;;6.63;5.72;;;;;;;;;;5018433;28;60219;-77
2024/03/04 10:51:00;;;;;;;7.55;6.03;;;;;;;;;;5021627;28;59199;-76
2024/03/04 10:53:26;;;;;;;6.37;5.73;;;;;;;;;;5031138;28;59266;-76
2024/03/04 10:55:53;;;;;;;7.90;6.57;;;;;;;;;;5029708;27;59989;-77
2024/03/04 10:58:19;;;;;;;5.90;4.97;;;;;;;;;;5030100;28;59190;-76
2024/03/04 11:00:44;;;;;;;6.97;6.15;;;;;;;;;;5030100;27;59270;-77
2024/03/04 11:03:12;;;;;;;7.37;5.80;;;;;;;;;;5029384;28;59269;-76
2024/03/04 11:05:43;;;;;;;6.32;5.78;;;;;;;;;;5020445;28;59588;-77
2024/03/04 11:08:17;;;;;;;5.78;5.28;;;;;;;;;;5029849;28;61287;-77
2024/03/04 11:10:46;;;;;;;6.45;5.85;;;;;;;;;;5020990;28;59305;-81
2024/03/04 11:13:25;;;;;;;5.85;5.32;;;;;;;;;;5026479;28;59281;-81
2024/03/04 11:15:57;;;;;;;5.90;5.30;;;;;;;;;;5018309;28;60359;-82
2024/03/04 11:18:41;;;;;;;6.30;5.35;;;;;;;;;;5011629;28;59361;-82
2024/03/04 11:21:07;;;;;;;5.88;5.28;;;;;;;;;;5022105;28;59248;-80
2024/03/04 11:23:33;;;;;;;7.07;5.97;;;;;;;;;;5029095;28;61893;-81
2024/03/04 11:25:59;;;;;;;7.07;6.38;;;;;;;;;;5018689;28;59220;-80
2024/03/04 11:28:24;;;;;;;7.43;6.55;;;;;;;;;;5021653;28;59212;-80
2024/03/04 11:30:50;;;;;;;7.10;6.40;;;;;;;;;;5023741;28;59285;-81
2024/03/04 11:33:34;;;;;;;6.05;5.28;;;;;;;;;;5026938;28;59278;-79
2024/03/04 11:35:59;;;;;;;6.20;5.57;;;;;;;;;;5019868;28;60216;-79
2024/03/04 11:38:27;;;;;;;7.30;6.55;;;;;;;;;;5020219;28;59442;-79
2024/03/04 11:40:56;;;;;;;7.05;6.35;;;;;;;;;;5029179;28;59314;-79
2024/03/04 11:43:40;;;;;;;6.50;5.90;;;;;;;;;;5028648;28;60905;-79
2024/03/04 11:46:09;;;;;;;7.35;6.57;;;;;;;;;;5029154;28;59360;-77
2024/03/04 11:48:34;;;;;;;6.35;5.75;;;;;;;;;;5026880;28;59160;-79
2024/03/04 11:50:59;;;;;;;6.70;6.00;;;;;;;;;;5030735;28;60982;-78
2024/03/04 11:53:28;;;;;;;6.45;5.78;;;;;;;;;;5029424;28;59520;-78
2024/03/04 11:55:54;;;;;;;7.15;5.95;;;;;;;;;;5027467;28;59400;-79
2024/03/04 11:58:20;;;;;;;6.45;5.85;;;;;;;;;;5021427;28;59278;-80
2024/03/04 12:00:47;;;;;;;6.75;6.13;;;;;;;;;;5018421;28;59294;-78
2024/03/04 12:03:14;;;;;;;7.53;6.40;;;;;;;;;;5017675;28;59248;-80
2024/03/04 12:05:40;;;;;;;6.03;5.25;;;;;;;;;;5017289;28;59245;-77
2024/03/04 12:08:06;;;;;;;5.97;5.37;;;;;;;;;;5030657;28;59344;-78
2024/03/04 12:10:32;;;;;;;6.85;6.25;;;;;;;;;;5019237;28;60206;-79
2024/03/04 12:12:58;;;;;;;6.18;5.57;;;;;;;;;;5019452;28;59187;-80
2024/03/04 12:15:23;;;;;;;6.53;5.93;;;;;;;;;;5016178;28;59207;-81
2024/03/04 12:17:48;;;;;;;6.97;6.27;;;;;;;;;;5017953;28;59753;-78
2024/03/04 12:20:13;;;;;;;6.80;6.10;;;;;;;;;;5020090;28;58965;-81
2024/03/04 12:22:39;;;;;;;6.93;6.22;;;;;;;;;;5018763;28;59223;-77
2024/03/04 12:25:05;;;;;;;5.57;4.97;;;;;;;;;;5017651;28;59479;-80
2024/03/04 12:27:30;;;;;;;6.38;5.78;;;;;;;;;;5016113;28;59255;-79
2024/03/04 12:30:14;;;;;;;6.63;6.03;;;;;;;;;;5016455;28;60127;-78
2024/03/04 12:32:40;;;;;;;6.78;6.07;;;;;;;;;;5010165;28;59386;-79
2024/03/04 12:35:22;;;;;;;6.40;5.80;;;;;;;;;;5029844;28;59008;-80
2024/03/04 12:37:48;;;;;;;7.57;6.07;;;;;;;;;;5017148;28;59381;-77
2024/03/04 12:40:14;;;;;;;8.07;6.70;;;;;;;;;;5014740;28;59246;-80
2024/03/04 12:42:39;;;;;;;6.80;6.15;;;;;;;;;;5023327;28;61140;-81
2024/03/04 12:45:05;;;;;;;5.93;5.28;;;;;;;;;;5024871;28;59237;-80
2024/03/04 12:47:30;;;;;;;6.20;5.60;;;;;;;;;;5018292;28;59266;-79
2024/03/04 12:49:56;;;;;;;6.18;5.57;;;;;;;;;;5024176;28;59497;-81
2024/03/04 12:52:21;;;;;;;6.85;6.15;;;;;;;;;;5026015;28;59048;-80
2024/03/04 12:54:46;;;;;;;7.97;6.67;;;;;;;;;;5027562;28;59308;-81
2024/03/04 12:57:11;;;;;;;7.50;6.70;;;;;;;;;;5025980;28;59383;-81
2024/03/04 12:59:42;;;;;;;7.10;6.47;;;;;;;;;;5027365;28;59246;-80
2024/03/04 13:02:07;;;;;;;6.40;5.80;;;;;;;;;;5026988;28;60623;-80
2024/03/04 13:04:32;;;;;;;7.88;6.65;;;;;;;;;;5024663;28;59213;-80
2024/03/04 13:06:57;;;;;;;6.50;5.90;;;;;;;;;;5021788;28;59180;-81
2024/03/04 13:09:22;;;;;;;6.70;6.10;;;;;;;;;;5022068;28;60158;-79
2024/03/04 13:11:52;;;;;;;6.93;5.85;;;;;;;;;;5026250;28;59599;-78
2024/03/04 13:14:17;;;;;;;7.20;6.38;;;;;;;;;;5007488;28;59370;-79
2024/03/04 13:16:42;;;;;;;6.23;5.50;;;;;;;;;;5027294;28;59722;-78
2024/03/04 13:19:08;;;;;;;8.00;6.67;;;;;;;;;;5020519;28;59254;-78
2024/03/04 13:21:33;;;;;;;7.73;6.93;;;;;;;;;;5019196;28;60113;-79
2024/03/04 13:23:58;;;;;;;9.50;6.53;;;;;;;;;;5014990;28;59327;-78
2024/03/04 13:26:24;;;;;;;7.55;6.75;;;;;;;;;;5017340;28;59267;-79
2024/03/04 13:28:49;;;;;;;6.50;5.90;;;;;;;;;;5017585;28;60736;-79
2024/03/04 13:31:14;;;;;;;7.17;6.37;;;;;;;;;;5023506;28;59316;-77
2024/03/04 13:33:39;;;;;;;9.00;7.22;;;;;;;;;;5028085;28;59282;-77
2024/03/04 13:36:04;;;;;;;8.02;5.25;;;;;;;;;;5025628;28;59674;-72
2024/03/04 13:38:32;;;;;;;12.27;7.00;;;;;;;;;;5018099;28;59549;-77
2024/03/04 13:40:57;;;;;;;8.73;6.30;;;;;;;;;;5018038;28;64328;-76
2024/03/04 13:43:23;;;;;;;22.10;7.32;;;;;;;;;;5014487;28;59323;-78
2024/03/04 13:45:48;;;;;;;12.02;6.57;;;;;;;;;;5022354;28;59349;-77
2024/03/04 13:48:13;;;;;;;10.80;7.05;;;;;;;;;;5027268;28;59812;-78
2024/03/04 13:50:38;;;;;;;8.02;6.70;;;;;;;;;;5025842;28;59318;-76
2024/03/04 13:53:03;;;;;;;8.20;5.85;;;;;;;;;;5029202;28;59161;-78
2024/03/04 13:55:28;;;;;;;7.60;6.80;;;;;;;;;;5028186;28;60326;-76
2024/03/04 13:57:53;;;;;;;7.40;6.20;;;;;;;;;;5024345;28;59607;-78
2024/03/04 14:00:19;;;;;;;9.07;6.73;;;;;;;;;;5016874;28;59402;-76
2024/03/04 14:02:44;;;;;;;10.23;6.20;;;;;;;;;;5017536;28;59686;-77
2024/03/04 14:05:13;;;;;;;10.43;7.73;;;;;;;;;;5018723;28;59280;-77
2024/03/04 14:07:38;;;;;;;12.48;8.90;;;;;;;;;;5014353;28;61254;-77
2024/03/04 14:10:03;;;;;;;12.37;7.53;;;;;;;;;;5022100;28;59576;-77
2024/03/04 14:12:28;;;;;;;13.80;8.53;;;;;;;;;;5021440;28;59202;-76
2024/03/04 14:14:53;;;;;;;10.18;8.18;;;;;;;;;;5017475;28;59457;-77
2024/03/04 14:17:19;;;;;;;15.15;7.95;;;;;;;;;;5019182;28;59977;-77
2024/03/04 14:19:44;;;;;;;13.63;7.43;;;;;;;;;;5030015;28;59631;-77
2024/03/04 14:22:09;;;;;;;13.73;8.03;;;;;;;;;;5023296;28;60935;-77
2024/03/04 14:24:34;;;;;;;12.10;8.07;;;;;;;;;;5023638;28;58693;-77
2024/03/04 14:27:05;;;;;;;17.63;10.10;;;;;;;;;;5028310;28;59378;-77
2024/03/04 14:29:30;;;;;;;20.52;9.25;;;;;;;;;;5019780;28;59264;-75
2024/03/04 14:31:55;;;;;;;17.50;11.13;;;;;;;;;;5016857;28;59360;-76
2024/03/04 14:34:20;;;;;;;19.10;10.25;;;;;;;;;;5012500;28;59141;-76
2024/03/04 14:36:45;;;;;;;13.70;9.40;;;;;;;;;;5011733;28;59466;-78